sensor_id;sensor_type;location;lat;lon;timestamp;temperature;humidity
31369;DHT22;18004;48.416;10.066;2023-07-29T00:00:41;16.30;99.90
31369;DHT22;18004;48.416;10.066;2023-07-29T00:03:08;16.20;99.90
31369;DHT22;18004;48.416;10.066;2023-07-29T00:05:34;16.10;99.90
31369;DHT22;18004;48.416;10.066;2023-07-29T00:07:59;16.10;99.90
31369;DHT22;18004;48.416;10.066;2023-07-29T00:10:26;16.20;99.90
31369;DHT22;18004;48.416;10.066;2023-07-29T00:12:52;16.20;99.90
31369;DHT22;18004;48.416;10.066;2023-07-29T00:15:18;16.20;99.90
31369;DHT22;18004;48.416;10.066;2023-07-29T00:17:44;16.20;99.90
31369;DHT22;18004;48.416;10.066;2023-07-29T00:20:10;16.20;99.90
31369;DHT22;18004;48.416;10.066;2023-07-29T00:22:36;16.20;99.90
31369;DHT22;18004;48.416;10.066;2023-07-29T00:25:01;16.20;99.90
31369;DHT22;18004;48.416;10.066;2023-07-29T00:27:27;16.20;99.90
31369;DHT22;18004;48.416;10.066;2023-07-29T00:29:53;16.10;99.90
31369;DHT22;18004;48.416;10.066;2023-07-29T00:32:19;16.10;99.90
31369;DHT22;18004;48.416;10.066;2023-07-29T00:34:44;16.10;99.90
31369;DHT22;18004;48.416;10.066;2023-07-29T00:37:10;16.10;99.90
31369;DHT22;18004;48.416;10.066;2023-07-29T00:39:36;16.10;99.90
31369;DHT22;18004;48.416;10.066;2023-07-29T00:42:03;16.00;99.90
31369;DHT22;18004;48.416;10.066;2023-07-29T00:44:29;16.00;99.90
31369;DHT22;18004;48.416;10.066;2023-07-29T00:46:57;16.00;99.90
31369;DHT22;18004;48.416;10.066;2023-07-29T00:49:24;16.00;99.90
31369;DHT22;18004;48.416;10.066;2023-07-29T00:51:50;16.00;99.90
31369;DHT22;18004;48.416;10.066;2023-07-29T00:54:16;16.00;99.90
31369;DHT22;18004;48.416;10.066;2023-07-29T00:56:42;16.00;99.90
31369;DHT22;18004;48.416;10.066;2023-07-29T00:59:08;15.90;99.90
31369;DHT22;18004;48.416;10.066;2023-07-29T01:01:34;15.90;99.90
31369;DHT22;18004;48.416;10.066;2023-07-29T01:03:59;15.90;99.90
31369;DHT22;18004;48.416;10.066;2023-07-29T01:06:46;15.90;99.90
31369;DHT22;18004;48.416;10.066;2023-07-29T01:16:46;15.80;99.90
31369;DHT22;18004;48.416;10.066;2023-07-29T01:21:57;15.70;99.90
31369;DHT22;18004;48.416;10.066;2023-07-29T01:24:23;15.70;99.90
31369;DHT22;18004;48.416;10.066;2023-07-29T01:26:48;15.70;99.90
31369;DHT22;18004;48.416;10.066;2023-07-29T01:29:14;15.70;99.90
31369;DHT22;18004;48.416;10.066;2023-07-29T01:31:43;15.70;99.90
31369;DHT22;18004;48.416;10.066;2023-07-29T01:34:20;15.70;99.90
31369;DHT22;18004;48.416;10.066;2023-07-29T01:36:48;15.70;99.90
31369;DHT22;18004;48.416;10.066;2023-07-29T01:39:17;15.70;99.90
31369;DHT22;18004;48.416;10.066;2023-07-29T01:41:44;15.70;99.90
31369;DHT22;18004;48.416;10.066;2023-07-29T01:44:10;15.70;99.90
31369;DHT22;18004;48.416;10.066;2023-07-29T01:46:37;15.70;99.90
31369;DHT22;18004;48.416;10.066;2023-07-29T01:49:03;15.70;99.90
31369;DHT22;18004;48.416;10.066;2023-07-29T01:51:28;15.70;99.90
31369;DHT22;18004;48.416;10.066;2023-07-29T01:53:54;15.70;99.90
31369;DHT22;18004;48.416;10.066;2023-07-29T01:56:21;15.70;99.90
31369;DHT22;18004;48.416;10.066;2023-07-29T01:58:47;15.70;99.90
31369;DHT22;18004;48.416;10.066;2023-07-29T02:01:12;15.80;99.90
31369;DHT22;18004;48.416;10.066;2023-07-29T02:03:39;15.80;99.90
31369;DHT22;18004;48.416;10.066;2023-07-29T02:06:04;15.80;99.90
31369;DHT22;18004;48.416;10.066;2023-07-29T02:08:30;15.80;99.90
31369;DHT22;18004;48.416;10.066;2023-07-29T02:10:56;15.80;99.90
31369;DHT22;18004;48.416;10.066;2023-07-29T02:13:22;15.80;99.90
31369;DHT22;18004;48.416;10.066;2023-07-29T02:15:47;15.80;99.90
31369;DHT22;18004;48.416;10.066;2023-07-29T02:18:13;15.80;99.90
31369;DHT22;18004;48.416;10.066;2023-07-29T02:20:39;15.80;99.90
31369;DHT22;18004;48.416;10.066;2023-07-29T02:23:05;15.90;99.90
31369;DHT22;18004;48.416;10.066;2023-07-29T02:25:30;15.90;99.90
31369;DHT22;18004;48.416;10.066;2023-07-29T02:27:56;16.00;99.90
31369;DHT22;18004;48.416;10.066;2023-07-29T02:30:22;16.00;99.90
31369;DHT22;18004;48.416;10.066;2023-07-29T02:32:48;16.00;99.90
31369;DHT22;18004;48.416;10.066;2023-07-29T02:35:14;16.00;99.90
31369;DHT22;18004;48.416;10.066;2023-07-29T02:37:39;16.00;99.90
31369;DHT22;18004;48.416;10.066;2023-07-29T02:40:05;16.10;99.90
31369;DHT22;18004;48.416;10.066;2023-07-29T02:42:31;16.00;99.90
31369;DHT22;18004;48.416;10.066;2023-07-29T02:44:57;16.00;99.90
31369;DHT22;18004;48.416;10.066;2023-07-29T02:47:24;16.00;99.90
31369;DHT22;18004;48.416;10.066;2023-07-29T02:49:50;16.00;99.90
31369;DHT22;18004;48.416;10.066;2023-07-29T02:52:16;16.00;99.90
31369;DHT22;18004;48.416;10.066;2023-07-29T02:54:41;16.00;99.90
31369;DHT22;18004;48.416;10.066;2023-07-29T02:57:07;16.00;99.90
31369;DHT22;18004;48.416;10.066;2023-07-29T02:59:33;15.90;99.90
31369;DHT22;18004;48.416;10.066;2023-07-29T03:01:59;15.90;99.90
31369;DHT22;18004;48.416;10.066;2023-07-29T03:04:24;15.90;99.90
31369;DHT22;18004;48.416;10.066;2023-07-29T03:06:50;15.90;99.90
31369;DHT22;18004;48.416;10.066;2023-07-29T03:09:16;15.90;99.90
31369;DHT22;18004;48.416;10.066;2023-07-29T03:11:41;15.90;99.90
31369;DHT22;18004;48.416;10.066;2023-07-29T03:14:07;15.80;99.90
31369;DHT22;18004;48.416;10.066;2023-07-29T03:16:33;15.80;99.90
31369;DHT22;18004;48.416;10.066;2023-07-29T03:18:59;15.80;99.90
31369;DHT22;18004;48.416;10.066;2023-07-29T03:21:25;15.80;99.90
31369;DHT22;18004;48.416;10.066;2023-07-29T03:23:51;15.80;99.90
31369;DHT22;18004;48.416;10.066;2023-07-29T03:26:17;15.70;99.90
31369;DHT22;18004;48.416;10.066;2023-07-29T03:28:43;15.80;99.90
31369;DHT22;18004;48.416;10.066;2023-07-29T03:31:09;15.70;99.90
31369;DHT22;18004;48.416;10.066;2023-07-29T03:33:35;15.70;99.90
31369;DHT22;18004;48.416;10.066;2023-07-29T03:36:01;15.70;99.90
31369;DHT22;18004;48.416;10.066;2023-07-29T03:38:27;15.70;99.90
31369;DHT22;18004;48.416;10.066;2023-07-29T03:40:53;15.70;99.90
31369;DHT22;18004;48.416;10.066;2023-07-29T03:43:19;15.70;99.90
31369;DHT22;18004;48.416;10.066;2023-07-29T03:45:45;15.70;99.90
31369;DHT22;18004;48.416;10.066;2023-07-29T03:48:11;15.80;99.90
31369;DHT22;18004;48.416;10.066;2023-07-29T03:50:37;15.80;99.90
31369;DHT22;18004;48.416;10.066;2023-07-29T03:53:04;15.70;99.90
31369;DHT22;18004;48.416;10.066;2023-07-29T03:55:33;15.70;99.90
31369;DHT22;18004;48.416;10.066;2023-07-29T03:57:59;15.70;99.90
31369;DHT22;18004;48.416;10.066;2023-07-29T04:00:25;15.80;99.90
31369;DHT22;18004;48.416;10.066;2023-07-29T04:02:51;15.80;99.90
31369;DHT22;18004;48.416;10.066;2023-07-29T04:05:17;15.80;99.90
31369;DHT22;18004;48.416;10.066;2023-07-29T04:07:43;15.80;99.90
31369;DHT22;18004;48.416;10.066;2023-07-29T04:10:09;15.80;99.90
31369;DHT22;18004;48.416;10.066;2023-07-29T04:12:35;15.80;99.90
31369;DHT22;18004;48.416;10.066;2023-07-29T04:15:01;15.90;99.90
31369;DHT22;18004;48.416;10.066;2023-07-29T04:17:27;15.90;99.90
31369;DHT22;18004;48.416;10.066;2023-07-29T04:19:53;15.90;99.90
31369;DHT22;18004;48.416;10.066;2023-07-29T04:22:18;15.90;99.90
31369;DHT22;18004;48.416;10.066;2023-07-29T04:24:44;15.90;99.90
31369;DHT22;18004;48.416;10.066;2023-07-29T04:27:10;16.00;99.90
31369;DHT22;18004;48.416;10.066;2023-07-29T04:29:36;16.00;99.90
31369;DHT22;18004;48.416;10.066;2023-07-29T04:32:03;16.00;99.90
31369;DHT22;18004;48.416;10.066;2023-07-29T04:34:29;16.00;99.90
31369;DHT22;18004;48.416;10.066;2023-07-29T04:36:54;16.00;99.90
31369;DHT22;18004;48.416;10.066;2023-07-29T04:39:20;16.00;99.90
31369;DHT22;18004;48.416;10.066;2023-07-29T04:41:46;16.00;99.90
31369;DHT22;18004;48.416;10.066;2023-07-29T04:44:12;16.00;99.90
31369;DHT22;18004;48.416;10.066;2023-07-29T04:46:38;16.00;99.90
31369;DHT22;18004;48.416;10.066;2023-07-29T04:49:04;16.00;99.90
31369;DHT22;18004;48.416;10.066;2023-07-29T04:51:31;16.10;99.90
31369;DHT22;18004;48.416;10.066;2023-07-29T04:53:59;16.10;99.90
31369;DHT22;18004;48.416;10.066;2023-07-29T04:56:25;16.10;99.90
31369;DHT22;18004;48.416;10.066;2023-07-29T04:58:51;16.10;99.90
31369;DHT22;18004;48.416;10.066;2023-07-29T05:01:17;16.10;99.90
31369;DHT22;18004;48.416;10.066;2023-07-29T05:03:42;16.10;99.90
31369;DHT22;18004;48.416;10.066;2023-07-29T05:06:08;16.10;99.90
31369;DHT22;18004;48.416;10.066;2023-07-29T05:08:35;16.20;99.90
31369;DHT22;18004;48.416;10.066;2023-07-29T05:11:00;16.20;99.90
31369;DHT22;18004;48.416;10.066;2023-07-29T05:17:16;16.40;99.90
31369;DHT22;18004;48.416;10.066;2023-07-29T05:19:56;16.50;99.90
31369;DHT22;18004;48.416;10.066;2023-07-29T05:22:37;16.50;99.90
31369;DHT22;18004;48.416;10.066;2023-07-29T05:25:22;16.60;99.90
31369;DHT22;18004;48.416;10.066;2023-07-29T05:27:48;16.70;99.90
31369;DHT22;18004;48.416;10.066;2023-07-29T05:30:23;16.70;99.90
31369;DHT22;18004;48.416;10.066;2023-07-29T05:33:21;16.80;99.90
31369;DHT22;18004;48.416;10.066;2023-07-29T05:35:49;16.80;99.90
31369;DHT22;18004;48.416;10.066;2023-07-29T05:38:22;16.90;99.90
31369;DHT22;18004;48.416;10.066;2023-07-29T05:40:48;16.90;99.90
31369;DHT22;18004;48.416;10.066;2023-07-29T05:43:14;17.00;99.90
31369;DHT22;18004;48.416;10.066;2023-07-29T05:45:40;17.00;99.90
31369;DHT22;18004;48.416;10.066;2023-07-29T05:48:06;17.10;99.90
31369;DHT22;18004;48.416;10.066;2023-07-29T05:50:32;17.10;99.90
31369;DHT22;18004;48.416;10.066;2023-07-29T05:52:58;17.10;99.90
31369;DHT22;18004;48.416;10.066;2023-07-29T05:55:24;17.10;99.90
31369;DHT22;18004;48.416;10.066;2023-07-29T05:57:50;17.20;99.90
31369;DHT22;18004;48.416;10.066;2023-07-29T06:00:15;17.20;99.90
31369;DHT22;18004;48.416;10.066;2023-07-29T06:02:44;17.20;99.90
31369;DHT22;18004;48.416;10.066;2023-07-29T06:05:10;17.20;99.90
31369;DHT22;18004;48.416;10.066;2023-07-29T06:07:36;17.20;99.90
31369;DHT22;18004;48.416;10.066;2023-07-29T06:10:01;17.20;99.90
31369;DHT22;18004;48.416;10.066;2023-07-29T06:12:27;17.30;99.90
31369;DHT22;18004;48.416;10.066;2023-07-29T06:14:53;17.30;99.90
31369;DHT22;18004;48.416;10.066;2023-07-29T06:17:19;17.30;99.90
31369;DHT22;18004;48.416;10.066;2023-07-29T06:19:44;17.30;99.90
31369;DHT22;18004;48.416;10.066;2023-07-29T06:22:10;17.30;99.90
31369;DHT22;18004;48.416;10.066;2023-07-29T06:24:36;17.30;99.90
31369;DHT22;18004;48.416;10.066;2023-07-29T06:27:02;17.40;99.90
31369;DHT22;18004;48.416;10.066;2023-07-29T06:29:28;17.50;99.90
31369;DHT22;18004;48.416;10.066;2023-07-29T06:31:54;17.60;99.90
31369;DHT22;18004;48.416;10.066;2023-07-29T06:34:20;17.60;99.90
31369;DHT22;18004;48.416;10.066;2023-07-29T06:37:23;17.70;99.90
31369;DHT22;18004;48.416;10.066;2023-07-29T06:40:36;17.80;99.90
31369;DHT22;18004;48.416;10.066;2023-07-29T06:43:02;17.70;99.90
31369;DHT22;18004;48.416;10.066;2023-07-29T06:45:28;17.70;99.90
31369;DHT22;18004;48.416;10.066;2023-07-29T06:47:54;17.80;99.90
31369;DHT22;18004;48.416;10.066;2023-07-29T06:53:43;18.00;99.90
31369;DHT22;18004;48.416;10.066;2023-07-29T06:56:09;18.00;99.90
31369;DHT22;18004;48.416;10.066;2023-07-29T06:58:35;18.20;99.90
31369;DHT22;18004;48.416;10.066;2023-07-29T07:01:01;18.40;99.90
31369;DHT22;18004;48.416;10.066;2023-07-29T07:03:28;18.50;99.90
31369;DHT22;18004;48.416;10.066;2023-07-29T07:05:54;18.50;99.90
31369;DHT22;18004;48.416;10.066;2023-07-29T07:08:20;18.50;99.90
31369;DHT22;18004;48.416;10.066;2023-07-29T07:10:54;18.50;99.90
31369;DHT22;18004;48.416;10.066;2023-07-29T07:13:30;18.50;99.90
31369;DHT22;18004;48.416;10.066;2023-07-29T07:23:30;19.00;99.90
31369;DHT22;18004;48.416;10.066;2023-07-29T07:37:51;19.50;99.90
31369;DHT22;18004;48.416;10.066;2023-07-29T07:44:49;20.00;99.90
31369;DHT22;18004;48.416;10.066;2023-07-29T07:47:28;20.30;99.90
31369;DHT22;18004;48.416;10.066;2023-07-29T07:49:54;20.30;99.90
31369;DHT22;18004;48.416;10.066;2023-07-29T07:52:20;20.60;99.90
31369;DHT22;18004;48.416;10.066;2023-07-29T07:54:56;20.70;99.90
31369;DHT22;18004;48.416;10.066;2023-07-29T07:57:55;20.80;99.90
31369;DHT22;18004;48.416;10.066;2023-07-29T08:00:25;20.90;99.90
31369;DHT22;18004;48.416;10.066;2023-07-29T08:03:13;21.10;99.90
31369;DHT22;18004;48.416;10.066;2023-07-29T08:05:39;21.10;99.90
31369;DHT22;18004;48.416;10.066;2023-07-29T08:08:14;21.10;99.90
31369;DHT22;18004;48.416;10.066;2023-07-29T08:10:42;21.10;99.90
31369;DHT22;18004;48.416;10.066;2023-07-29T08:13:08;21.20;99.90
31369;DHT22;18004;48.416;10.066;2023-07-29T08:20:38;21.70;99.90
31369;DHT22;18004;48.416;10.066;2023-07-29T08:24:22;21.60;99.90
31369;DHT22;18004;48.416;10.066;2023-07-29T08:27:16;21.60;99.90
31369;DHT22;18004;48.416;10.066;2023-07-29T08:30:51;21.60;99.90
31369;DHT22;18004;48.416;10.066;2023-07-29T08:48:19;22.10;99.90
31369;DHT22;18004;48.416;10.066;2023-07-29T08:50:50;21.60;99.90
31369;DHT22;18004;48.416;10.066;2023-07-29T08:57:36;21.30;99.90
31369;DHT22;18004;48.416;10.066;2023-07-29T09:01:16;21.20;99.90
31369;DHT22;18004;48.416;10.066;2023-07-29T09:08:49;21.10;99.90
31369;DHT22;18004;48.416;10.066;2023-07-29T09:16:09;20.90;99.90
31369;DHT22;18004;48.416;10.066;2023-07-29T09:42:11;20.90;99.90
31369;DHT22;18004;48.416;10.066;2023-07-29T09:48:38;20.90;99.90
31369;DHT22;18004;48.416;10.066;2023-07-29T12:20:07;26.50;53.10
31369;DHT22;18004;48.416;10.066;2023-07-29T14:37:15;25.80;45.60
31369;DHT22;18004;48.416;10.066;2023-07-29T15:51:47;24.20;94.40
31369;DHT22;18004;48.416;10.066;2023-07-29T16:06:56;23.10;99.90
31369;DHT22;18004;48.416;10.066;2023-07-29T16:09:22;22.60;99.90
31369;DHT22;18004;48.416;10.066;2023-07-29T16:15:45;22.10;99.90
31369;DHT22;18004;48.416;10.066;2023-07-29T16:18:16;21.90;99.90
31369;DHT22;18004;48.416;10.066;2023-07-29T16:27:52;21.40;99.90
31369;DHT22;18004;48.416;10.066;2023-07-29T16:30:45;21.20;99.90
31369;DHT22;18004;48.416;10.066;2023-07-29T16:33:33;21.00;99.90
31369;DHT22;18004;48.416;10.066;2023-07-29T16:36:20;20.90;99.90
31369;DHT22;18004;48.416;10.066;2023-07-29T16:38:58;20.70;99.90
31369;DHT22;18004;48.416;10.066;2023-07-29T16:41:24;20.80;99.90
31369;DHT22;18004;48.416;10.066;2023-07-29T16:44:22;20.70;99.90
31369;DHT22;18004;48.416;10.066;2023-07-29T16:47:12;20.60;99.90
31369;DHT22;18004;48.416;10.066;2023-07-29T16:53:51;20.40;99.90
31369;DHT22;18004;48.416;10.066;2023-07-29T16:56:24;20.40;99.90
31369;DHT22;18004;48.416;10.066;2023-07-29T17:02:38;20.20;99.90
31369;DHT22;18004;48.416;10.066;2023-07-29T17:23:50;19.90;99.90
31369;DHT22;18004;48.416;10.066;2023-07-29T17:26:18;19.90;99.90
31369;DHT22;18004;48.416;10.066;2023-07-29T17:32:40;19.80;99.90
31369;DHT22;18004;48.416;10.066;2023-07-29T17:39:10;19.80;99.90
31369;DHT22;18004;48.416;10.066;2023-07-29T17:41:36;19.90;99.90
31369;DHT22;18004;48.416;10.066;2023-07-29T17:44:02;19.90;99.90
31369;DHT22;18004;48.416;10.066;2023-07-29T17:46:28;20.00;99.90
31369;DHT22;18004;48.416;10.066;2023-07-29T17:48:56;20.00;99.90
31369;DHT22;18004;48.416;10.066;2023-07-29T17:51:49;20.10;99.90
31369;DHT22;18004;48.416;10.066;2023-07-29T17:57:30;20.20;99.90
31369;DHT22;18004;48.416;10.066;2023-07-29T18:00:48;20.30;99.90
31369;DHT22;18004;48.416;10.066;2023-07-29T18:03:40;20.40;99.90
31369;DHT22;18004;48.416;10.066;2023-07-29T18:10:28;20.50;99.90
31369;DHT22;18004;48.416;10.066;2023-07-29T18:17:36;20.50;99.90
31369;DHT22;18004;48.416;10.066;2023-07-29T18:20:37;20.30;99.90
31369;DHT22;18004;48.416;10.066;2023-07-29T18:27:46;20.30;99.90
31369;DHT22;18004;48.416;10.066;2023-07-29T18:31:01;20.30;99.90
31369;DHT22;18004;48.416;10.066;2023-07-29T18:33:47;20.20;99.90
31369;DHT22;18004;48.416;10.066;2023-07-29T18:47:23;20.30;99.90
31369;DHT22;18004;48.416;10.066;2023-07-29T18:49:54;20.10;99.90
31369;DHT22;18004;48.416;10.066;2023-07-29T18:52:24;20.10;99.90
31369;DHT22;18004;48.416;10.066;2023-07-29T18:55:28;20.00;99.90
31369;DHT22;18004;48.416;10.066;2023-07-29T18:57:57;19.90;99.90
31369;DHT22;18004;48.416;10.066;2023-07-29T19:07:05;19.90;99.90
31369;DHT22;18004;48.416;10.066;2023-07-29T19:10:10;19.90;99.90
31369;DHT22;18004;48.416;10.066;2023-07-29T19:12:49;19.90;99.90
31369;DHT22;18004;48.416;10.066;2023-07-29T19:15:21;19.90;99.90
31369;DHT22;18004;48.416;10.066;2023-07-29T19:17:47;19.90;99.90
31369;DHT22;18004;48.416;10.066;2023-07-29T19:20:13;19.90;99.90
31369;DHT22;18004;48.416;10.066;2023-07-29T19:23:18;19.80;99.90
31369;DHT22;18004;48.416;10.066;2023-07-29T19:26:03;19.90;99.90
31369;DHT22;18004;48.416;10.066;2023-07-29T19:29:22;19.80;99.90
31369;DHT22;18004;48.416;10.066;2023-07-29T19:34:38;19.70;99.90
31369;DHT22;18004;48.416;10.066;2023-07-29T19:37:09;19.70;99.90
31369;DHT22;18004;48.416;10.066;2023-07-29T19:39:39;19.70;99.90
31369;DHT22;18004;48.416;10.066;2023-07-29T19:42:05;19.70;99.90
31369;DHT22;18004;48.416;10.066;2023-07-29T19:44:34;19.70;99.90
31369;DHT22;18004;48.416;10.066;2023-07-29T19:47:00;19.70;99.90
31369;DHT22;18004;48.416;10.066;2023-07-29T19:53:07;19.50;99.90
31369;DHT22;18004;48.416;10.066;2023-07-29T19:55:33;19.50;99.90
31369;DHT22;18004;48.416;10.066;2023-07-29T19:58:02;19.50;99.90
31369;DHT22;18004;48.416;10.066;2023-07-29T20:00:27;19.50;99.90
31369;DHT22;18004;48.416;10.066;2023-07-29T20:03:02;19.40;99.90
31369;DHT22;18004;48.416;10.066;2023-07-29T20:09:20;19.30;99.90
31369;DHT22;18004;48.416;10.066;2023-07-29T20:11:48;19.30;99.90
31369;DHT22;18004;48.416;10.066;2023-07-29T20:14:14;19.30;99.90
31369;DHT22;18004;48.416;10.066;2023-07-29T20:16:52;19.30;99.90
31369;DHT22;18004;48.416;10.066;2023-07-29T20:19:18;19.20;99.90
31369;DHT22;18004;48.416;10.066;2023-07-29T20:21:43;19.20;99.90
31369;DHT22;18004;48.416;10.066;2023-07-29T20:24:18;19.20;99.90
31369;DHT22;18004;48.416;10.066;2023-07-29T20:30:41;19.20;99.90
31369;DHT22;18004;48.416;10.066;2023-07-29T20:33:11;19.10;99.90
31369;DHT22;18004;48.416;10.066;2023-07-29T20:35:39;19.20;99.90
31369;DHT22;18004;48.416;10.066;2023-07-29T20:38:05;19.20;99.90
31369;DHT22;18004;48.416;10.066;2023-07-29T20:40:31;19.10;99.90
31369;DHT22;18004;48.416;10.066;2023-07-29T20:42:57;19.10;99.90
31369;DHT22;18004;48.416;10.066;2023-07-29T20:45:32;19.10;99.90
31369;DHT22;18004;48.416;10.066;2023-07-29T20:48:08;19.00;99.90
31369;DHT22;18004;48.416;10.066;2023-07-29T20:50:38;19.00;99.90
31369;DHT22;18004;48.416;10.066;2023-07-29T20:53:04;18.90;99.90
31369;DHT22;18004;48.416;10.066;2023-07-29T20:55:40;18.90;99.90
31369;DHT22;18004;48.416;10.066;2023-07-29T20:58:13;18.90;99.90
31369;DHT22;18004;48.416;10.066;2023-07-29T21:04:15;18.90;99.90
31369;DHT22;18004;48.416;10.066;2023-07-29T21:07:11;18.70;99.90
31369;DHT22;18004;48.416;10.066;2023-07-29T21:10:50;18.70;99.90
31369;DHT22;18004;48.416;10.066;2023-07-29T21:13:20;18.70;99.90
31369;DHT22;18004;48.416;10.066;2023-07-29T21:16:25;18.70;99.90
31369;DHT22;18004;48.416;10.066;2023-07-29T21:38:20;18.60;99.90
31369;DHT22;18004;48.416;10.066;2023-07-29T21:40:55;18.60;99.90
31369;DHT22;18004;48.416;10.066;2023-07-29T21:43:21;18.60;99.90
31369;DHT22;18004;48.416;10.066;2023-07-29T21:45:46;18.70;99.90
31369;DHT22;18004;48.416;10.066;2023-07-29T21:48:12;18.60;99.90
31369;DHT22;18004;48.416;10.066;2023-07-29T21:50:38;18.70;99.90
31369;DHT22;18004;48.416;10.066;2023-07-29T21:53:09;18.70;99.90
31369;DHT22;18004;48.416;10.066;2023-07-29T21:55:45;18.80;99.90
31369;DHT22;18004;48.416;10.066;2023-07-29T22:01:47;18.70;99.90
31369;DHT22;18004;48.416;10.066;2023-07-29T22:04:15;18.80;99.90
31369;DHT22;18004;48.416;10.066;2023-07-29T22:06:41;18.70;99.90
31369;DHT22;18004;48.416;10.066;2023-07-29T22:09:12;18.70;99.90
31369;DHT22;18004;48.416;10.066;2023-07-29T22:11:41;18.70;99.90
31369;DHT22;18004;48.416;10.066;2023-07-29T22:18:00;18.70;99.90
31369;DHT22;18004;48.416;10.066;2023-07-29T22:24:33;18.70;99.90
31369;DHT22;18004;48.416;10.066;2023-07-29T22:26:59;18.70;99.90
31369;DHT22;18004;48.416;10.066;2023-07-29T22:29:25;18.70;99.90
31369;DHT22;18004;48.416;10.066;2023-07-29T22:31:51;18.70;99.90
31369;DHT22;18004;48.416;10.066;2023-07-29T22:34:17;18.70;99.90
31369;DHT22;18004;48.416;10.066;2023-07-29T22:36:44;18.70;99.90
31369;DHT22;18004;48.416;10.066;2023-07-29T22:39:10;18.70;99.90
31369;DHT22;18004;48.416;10.066;2023-07-29T23:08:17;18.30;99.90
31369;DHT22;18004;48.416;10.066;2023-07-29T23:28:25;18.20;99.90
31369;DHT22;18004;48.416;10.066;2023-07-29T23:30:55;18.10;99.90
31369;DHT22;18004;48.416;10.066;2023-07-29T23:33:25;18.10;99.90
31369;DHT22;18004;48.416;10.066;2023-07-29T23:43:19;18.10;99.90
31369;DHT22;18004;48.416;10.066;2023-07-29T23:45:45;18.00;99.90
31369;DHT22;18004;48.416;10.066;2023-07-29T23:48:10;18.00;99.90
31369;DHT22;18004;48.416;10.066;2023-07-29T23:50:48;17.90;99.90
31369;DHT22;18004;48.416;10.066;2023-07-29T23:53:14;17.90;99.90
31369;DHT22;18004;48.416;10.066;2023-07-29T23:55:39;17.90;99.90
